Time;durP1;ratioP1;P1;durP2;ratioP2;P2;SDS_P1;SDS_P2;PMS_P1;PMS_P2;Temp;Humidity;BMP_temperature;BMP_pressure;BME280_temperature;BME280_humidity;BME280_pressure;Samples;Min_cycle;Max_cycle;Signal;HPM_P1;HPM_P2
2023/11/28 05:01:18;;;;;;;2.13;2.03;;;-0.60;99.90;;;;;;5530607;23;20260;-74
2023/11/28 05:03:45;;;;;;;0.85;0.85;;;-0.60;99.90;;;;;;4951325;28;20659;-73
2023/11/28 05:06:11;;;;;;;0.95;0.95;;;-0.60;99.90;;;;;;4951350;29;20201;-74
2023/11/28 05:08:38;;;;;;;0.82;0.82;;;-0.60;99.90;;;;;;4953062;29;20202;-74
2023/11/28 05:11:05;;;;;;;1.20;1.20;;;-0.60;99.90;;;;;;4950676;28;20232;-74
2023/11/28 05:13:33;;;;;;;1.17;1.08;;;-0.60;99.90;;;;;;4952164;29;20205;-73
2023/11/28 05:16:00;;;;;;;0.50;0.50;;;-0.60;99.90;;;;;;4952178;28;20209;-73
2023/11/28 05:18:28;;;;;;;1.55;1.45;;;-0.70;99.90;;;;;;4953650;28;20216;-73
2023/11/28 05:20:55;;;;;;;1.02;0.98;;;-0.70;99.90;;;;;;4955525;28;20617;-73
2023/11/28 05:23:22;;;;;;;1.77;0.82;;;-0.70;99.90;;;;;;4957022;28;20577;-72
2023/11/28 05:25:49;;;;;;;1.10;0.77;;;-0.70;99.90;;;;;;4952897;29;20205;-73
2023/11/28 05:28:15;;;;;;;1.15;1.15;;;-0.70;99.90;;;;;;4955948;28;20232;-73
2023/11/28 05:30:42;;;;;;;2.08;1.98;;;-0.70;99.90;;;;;;4954772;28;20251;-73
2023/11/28 05:33:09;;;;;;;1.27;0.90;;;-0.70;99.90;;;;;;4953300;29;20205;-73
2023/11/28 05:35:37;;;;;;;2.10;0.95;;;-0.70;99.90;;;;;;4952545;28;20243;-73
2023/11/28 05:38:03;;;;;;;1.67;1.58;;;-0.70;99.90;;;;;;4954598;28;20213;-72
2023/11/28 05:40:30;;;;;;;1.00;1.00;;;-0.70;99.90;;;;;;4949750;29;20719;-73
2023/11/28 05:42:57;;;;;;;0.40;0.40;;;-0.70;99.90;;;;;;4950542;28;20213;-73
2023/11/28 05:45:23;;;;;;;0.93;0.93;;;-0.70;99.90;;;;;;4955098;28;20205;-73
2023/11/28 05:47:51;;;;;;;0.82;0.35;;;-0.70;99.90;;;;;;4956014;28;20205;-72
2023/11/28 05:50:18;;;;;;;1.30;0.68;;;-0.70;99.90;;;;;;4952802;28;20244;-72
2023/11/28 05:52:46;;;;;;;1.40;1.40;;;-0.70;99.90;;;;;;4954102;28;20209;-73
2023/11/28 05:55:13;;;;;;;1.30;1.30;;;-0.70;99.90;;;;;;4950255;28;20236;-72
2023/11/28 05:57:40;;;;;;;0.88;0.85;;;-0.70;99.90;;;;;;4954935;28;20212;-72
2023/11/28 06:00:08;;;;;;;1.30;1.23;;;-0.70;99.90;;;;;;4954709;28;20237;-73
2023/11/28 06:02:35;;;;;;;1.17;0.65;;;-0.70;99.90;;;;;;4950847;28;20224;-73
2023/11/28 06:05:03;;;;;;;1.27;0.77;;;-0.70;99.90;;;;;;4954763;28;20333;-74
2023/11/28 06:07:30;;;;;;;1.13;0.80;;;-0.70;99.90;;;;;;4952392;28;20209;-73
2023/11/28 06:09:58;;;;;;;9.98;1.60;;;-0.70;99.90;;;;;;4952065;28;20209;-73
2023/11/28 06:12:24;;;;;;;0.68;0.68;;;-0.70;99.90;;;;;;4949406;28;20229;-73
2023/11/28 06:14:54;;;;;;;2.78;2.67;;;-0.70;99.90;;;;;;4952710;28;20229;-73
2023/11/28 06:17:21;;;;;;;0.75;0.75;;;-0.70;99.90;;;;;;4954711;28;20294;-75
2023/11/28 06:19:48;;;;;;;6.13;1.05;;;-0.70;99.90;;;;;;4954713;28;20209;-73
2023/11/28 06:22:14;;;;;;;3.00;2.80;;;-0.70;99.90;;;;;;4951697;28;20708;-73
2023/11/28 06:24:41;;;;;;;1.88;1.02;;;-0.70;99.90;;;;;;4952244;29;20197;-73
2023/11/28 06:27:09;;;;;;;1.00;1.00;;;-0.60;99.90;;;;;;4951168;29;20211;-73
2023/11/28 06:29:36;;;;;;;0.85;0.70;;;-0.60;99.90;;;;;;4952752;28;20217;-73
2023/11/28 06:32:04;;;;;;;0.50;0.50;;;-0.70;99.90;;;;;;4951786;28;20221;-72
2023/11/28 06:34:30;;;;;;;1.90;1.80;;;-0.60;99.90;;;;;;4951430;28;20229;-74
2023/11/28 06:36:57;;;;;;;2.40;0.98;;;-0.60;99.90;;;;;;4949123;29;20696;-71
2023/11/28 06:39:24;;;;;;;1.10;1.10;;;-0.60;99.90;;;;;;4945558;28;20217;-71
2023/11/28 06:41:51;;;;;;;1.20;0.80;;;-0.60;99.90;;;;;;4951434;28;20276;-73
2023/11/28 06:44:20;;;;;;;1.90;1.80;;;-0.60;99.90;;;;;;4948799;28;20205;-72
2023/11/28 06:46:47;;;;;;;3.28;2.72;;;-0.60;99.90;;;;;;4953601;28;20213;-72
2023/11/28 06:49:14;;;;;;;1.35;1.35;;;-0.60;99.90;;;;;;4953233;29;20209;-72
2023/11/28 06:51:40;;;;;;;1.65;1.58;;;-0.60;99.90;;;;;;4949150;28;20244;-71
2023/11/28 06:54:09;;;;;;;1.75;1.75;;;-0.60;99.90;;;;;;4954502;28;20217;-71
2023/11/28 06:56:35;;;;;;;2.60;2.50;;;-0.60;99.90;;;;;;4949574;29;20332;-71
2023/11/28 06:59:02;;;;;;;1.30;1.30;;;-0.60;99.90;;;;;;4950921;28;20205;-71
2023/11/28 07:01:30;;;;;;;2.30;2.20;;;-0.60;99.90;;;;;;4944736;28;20245;-71
2023/11/28 07:03:57;;;;;;;1.90;1.40;;;-0.60;99.90;;;;;;4950676;28;20201;-71
2023/11/28 07:06:24;;;;;;;2.78;2.70;;;-0.60;99.90;;;;;;4950859;28;20281;-71
2023/11/28 07:08:50;;;;;;;1.83;1.75;;;-0.60;99.90;;;;;;4950149;28;20687;-70
2023/11/28 07:11:19;;;;;;;1.33;1.10;;;-0.60;99.90;;;;;;4951398;28;20227;-71
2023/11/28 07:13:46;;;;;;;5.75;3.20;;;-0.60;99.90;;;;;;4951724;28;20220;-71
2023/11/28 07:16:12;;;;;;;2.55;2.00;;;-0.60;99.90;;;;;;4948805;28;20242;-71
2023/11/28 07:18:41;;;;;;;6.32;2.63;;;-0.70;99.90;;;;;;4947299;28;20537;-71
2023/11/28 07:21:08;;;;;;;4.45;3.22;;;-0.60;99.90;;;;;;4951120;29;20308;-71
2023/11/28 07:23:36;;;;;;;2.35;1.98;;;-0.70;99.90;;;;;;4949077;29;20228;-71
2023/11/28 07:26:02;;;;;;;6.93;3.03;;;-0.60;99.90;;;;;;4951681;28;20202;-71
2023/11/28 07:28:30;;;;;;;1.33;1.20;;;-0.60;99.90;;;;;;4951280;28;20206;-71
2023/11/28 07:30:57;;;;;;;2.10;2.00;;;-0.60;99.90;;;;;;4952189;28;20229;-72
2023/11/28 07:33:23;;;;;;;1.58;1.52;;;-0.60;99.90;;;;;;4950445;28;20205;-72
2023/11/28 07:35:52;;;;;;;1.80;1.70;;;-0.60;99.90;;;;;;4947700;29;20241;-72
2023/11/28 07:38:20;;;;;;;4.25;3.08;;;-0.60;99.90;;;;;;4948616;29;20248;-72
2023/11/28 07:40:47;;;;;;;3.78;3.55;;;-0.60;99.90;;;;;;4950075;28;20661;-71
2023/11/28 07:43:13;;;;;;;2.75;2.55;;;-0.60;99.90;;;;;;4951653;28;20210;-72
2023/11/28 07:45:40;;;;;;;6.22;3.38;;;-0.50;99.90;;;;;;4951262;28;20699;-72
2023/11/28 07:48:07;;;;;;;3.40;2.88;;;-0.40;99.90;;;;;;4952519;28;20280;-71
2023/11/28 07:50:34;;;;;;;1.50;1.50;;;-0.40;99.90;;;;;;4951449;28;20229;-71
2023/11/28 07:53:03;;;;;;;3.72;3.33;;;-0.30;99.90;;;;;;4945361;28;20214;-71
2023/11/28 07:55:29;;;;;;;4.57;4.13;;;-0.20;99.90;;;;;;4949713;28;20232;-71
2023/11/28 07:57:56;;;;;;;2.17;2.08;;;-0.20;99.90;;;;;;4951439;29;20217;-72
2023/11/28 08:00:25;;;;;;;3.55;3.25;;;-0.10;99.90;;;;;;4951559;28;20205;-72
2023/11/28 08:02:52;;;;;;;3.55;3.00;;;-0.20;99.90;;;;;;4948452;28;20631;-71
2023/11/28 08:05:19;;;;;;;2.55;2.35;;;-0.20;99.90;;;;;;4950023;29;20204;-72
2023/11/28 08:07:46;;;;;;;5.65;3.38;;;-0.20;99.90;;;;;;4952775;28;20553;-72
2023/11/28 08:10:14;;;;;;;5.72;4.80;;;-0.10;99.90;;;;;;4952886;29;20212;-71
2023/11/28 08:12:41;;;;;;;2.28;2.08;;;-0.10;99.90;;;;;;4952973;28;20213;-71
2023/11/28 08:15:09;;;;;;;5.32;3.72;;;0.00;99.90;;;;;;4951243;29;20233;-71
2023/11/28 08:17:36;;;;;;;3.97;3.58;;;0.00;99.90;;;;;;4950819;28;20296;-71
2023/11/28 08:20:03;;;;;;;3.15;3.05;;;0.00;99.90;;;;;;4953450;28;20212;-71
2023/11/28 08:22:30;;;;;;;5.20;3.80;;;0.00;99.90;;;;;;4948097;29;20234;-70
2023/11/28 08:24:57;;;;;;;10.15;7.88;;;0.10;99.90;;;;;;4948756;29;20248;-71
2023/11/28 08:27:25;;;;;;;8.32;4.47;;;0.10;99.90;;;;;;4951985;28;20221;-73
2023/11/28 08:29:52;;;;;;;4.55;4.15;;;0.20;99.90;;;;;;4953031;28;20231;-70
2023/11/28 08:32:18;;;;;;;8.85;6.20;;;0.30;99.90;;;;;;4952694;28;20247;-70
2023/11/28 08:34:45;;;;;;;5.25;4.85;;;0.30;99.90;;;;;;4951254;28;20213;-70
2023/11/28 08:37:13;;;;;;;3.63;3.33;;;0.40;99.90;;;;;;4949357;29;20702;-70
2023/11/28 08:39:40;;;;;;;1.73;1.70;;;0.40;99.90;;;;;;4951831;28;20205;-71
2023/11/28 08:42:06;;;;;;;1.80;1.80;;;0.40;99.90;;;;;;4947415;28;20344;-70
2023/11/28 08:44:35;;;;;;;4.70;2.47;;;0.50;99.90;;;;;;4950515;28;20300;-70
2023/11/28 08:47:03;;;;;;;2.70;1.98;;;0.50;99.90;;;;;;4952588;28;20687;-70
2023/11/28 08:49:30;;;;;;;2.35;2.15;;;0.60;99.90;;;;;;4951028;28;20221;-71
2023/11/28 08:51:56;;;;;;;1.98;1.90;;;0.70;99.90;;;;;;4950179;28;20328;-71
2023/11/28 08:54:23;;;;;;;4.78;3.45;;;0.70;99.90;;;;;;4950426;28;20210;-69
2023/11/28 08:56:50;;;;;;;4.03;3.67;;;0.70;99.90;;;;;;4952514;29;20232;-70
2023/11/28 08:59:17;;;;;;;1.60;1.60;;;0.80;99.90;;;;;;4952982;28;20205;-69
2023/11/28 09:01:45;;;;;;;2.05;1.90;;;0.80;99.90;;;;;;4947913;28;20237;-70
2023/11/28 09:04:11;;;;;;;1.80;1.73;;;0.90;99.90;;;;;;4946956;28;20292;-70
2023/11/28 09:06:40;;;;;;;2.20;2.05;;;0.90;99.90;;;;;;4952377;28;20218;-71
2023/11/28 09:09:08;;;;;;;2.75;2.20;;;0.90;99.90;;;;;;4952650;28;20221;-70
2023/11/28 09:11:35;;;;;;;1.67;1.55;;;0.90;99.90;;;;;;4951388;28;20323;-70
2023/11/28 09:14:02;;;;;;;2.58;1.95;;;0.90;99.90;;;;;;4949108;28;20300;-71
2023/11/28 09:16:29;;;;;;;2.95;1.35;;;0.90;99.90;;;;;;4949504;29;20244;-70
2023/11/28 09:18:57;;;;;;;2.28;2.17;;;0.90;99.90;;;;;;4945253;28;20305;-70
2023/11/28 09:21:23;;;;;;;1.90;1.90;;;1.00;99.90;;;;;;4955352;28;20587;-71
2023/11/28 09:23:50;;;;;;;1.30;1.25;;;1.00;99.90;;;;;;4951070;28;20293;-71
2023/11/28 09:26:17;;;;;;;5.22;3.28;;;1.00;99.90;;;;;;4953828;29;20336;-70
2023/11/28 09:28:43;;;;;;;2.92;2.78;;;1.00;99.90;;;;;;4946006;29;20260;-71
2023/11/28 09:31:10;;;;;;;1.95;1.88;;;1.00;99.90;;;;;;4952164;28;20694;-71
2023/11/28 09:33:37;;;;;;;1.25;1.17;;;1.10;99.90;;;;;;4950246;28;20224;-70
2023/11/28 09:36:06;;;;;;;1.17;1.17;;;1.00;99.90;;;;;;4952090;28;20225;-71
2023/11/28 09:38:32;;;;;;;3.17;2.58;;;1.00;99.90;;;;;;4951679;28;20684;-71
2023/11/28 09:40:59;;;;;;;1.73;1.70;;;1.00;99.90;;;;;;4948496;28;20800;-71
2023/11/28 09:43:26;;;;;;;1.40;1.30;;;1.10;99.90;;;;;;4951976;28;20218;-71
2023/11/28 09:45:57;;;;;;;1.55;1.45;;;1.10;99.90;;;;;;4951434;28;20620;-71
2023/11/28 09:48:25;;;;;;;1.95;1.50;;;1.10;99.90;;;;;;4951314;28;20213;-71
2023/11/28 09:50:53;;;;;;;2.17;2.03;;;1.10;99.90;;;;;;4952879;28;20229;-71
2023/11/28 09:53:23;;;;;;;3.05;2.65;;;1.10;99.90;;;;;;4951379;28;20206;-70
2023/11/28 09:55:50;;;;;;;3.30;3.08;;;1.20;99.90;;;;;;4949785;29;20268;-72
2023/11/28 09:58:19;;;;;;;3.50;2.80;;;1.20;99.90;;;;;;4949707;28;20209;-70
2023/11/28 10:00:47;;;;;;;3.22;2.95;;;1.10;99.90;;;;;;4951518;28;20233;-72
2023/11/28 10:03:14;;;;;;;1.73;1.73;;;1.10;99.90;;;;;;4950612;28;20205;-72
2023/11/28 10:05:40;;;;;;;2.70;2.60;;;1.20;99.90;;;;;;4955512;28;20209;-72
2023/11/28 10:08:10;;;;;;;2.92;2.10;;;1.10;99.90;;;;;;4957661;28;20258;-73
2023/11/28 10:10:41;;;;;;;6.28;1.73;;;1.10;99.90;;;;;;4958355;28;20336;-70
2023/11/28 10:13:09;;;;;;;2.10;2.00;;;1.10;99.90;;;;;;4959175;28;20295;-72
2023/11/28 10:15:35;;;;;;;4.03;2.30;;;1.10;99.90;;;;;;4955170;28;20221;-73
2023/11/28 10:18:02;;;;;;;2.30;2.08;;;1.10;99.90;;;;;;4955292;29;20225;-72
2023/11/28 10:20:30;;;;;;;2.05;1.95;;;1.10;99.90;;;;;;4955042;28;20212;-72
2023/11/28 10:22:57;;;;;;;3.25;2.13;;;1.10;99.90;;;;;;4956764;28;20571;-72
2023/11/28 10:25:24;;;;;;;2.45;2.25;;;1.10;99.90;;;;;;4955087;28;20223;-72
2023/11/28 10:27:57;;;;;;;2.85;2.58;;;1.00;99.90;;;;;;4954891;28;20216;-72
2023/11/28 10:30:24;;;;;;;4.97;4.53;;;1.00;99.90;;;;;;4955076;28;20345;-72
2023/11/28 10:32:51;;;;;;;4.00;3.20;;;1.00;99.90;;;;;;4955539;28;20224;-72
2023/11/28 10:35:18;;;;;;;2.30;2.10;;;1.00;99.90;;;;;;4951234;29;20213;-72
2023/11/28 10:37:44;;;;;;;2.88;2.78;;;1.10;99.90;;;;;;4953490;28;20205;-74
2023/11/28 10:40:13;;;;;;;3.97;2.95;;;1.10;99.90;;;;;;4955835;28;20205;-72
2023/11/28 10:42:43;;;;;;;2.15;1.95;;;1.10;99.90;;;;;;4949696;28;20205;-72
2023/11/28 10:45:13;;;;;;;1.35;1.35;;;1.10;99.90;;;;;;4952461;28;20209;-73
2023/11/28 10:47:42;;;;;;;1.90;1.80;;;1.00;99.90;;;;;;4952788;28;20793;-73
2023/11/28 10:50:10;;;;;;;3.97;3.60;;;0.90;99.90;;;;;;4952062;29;20202;-70
2023/11/28 10:52:39;;;;;;;2.53;2.42;;;0.90;99.90;;;;;;4954466;28;20221;-70
2023/11/28 10:55:09;;;;;;;2.78;1.73;;;0.90;99.90;;;;;;4963430;28;20260;-70
2023/11/28 10:57:44;;;;;;;1.85;1.00;;;0.90;99.90;;;;;;4966126;28;20564;-72
2023/11/28 11:00:17;;;;;;;2.15;1.70;;;0.80;99.90;;;;;;4958769;29;20232;-70
2023/11/28 11:02:44;;;;;;;1.55;1.48;;;0.80;99.90;;;;;;4961508;29;20209;-70
2023/11/28 11:05:10;;;;;;;2.03;1.92;;;0.80;99.90;;;;;;4962856;28;20206;-70
2023/11/28 11:07:38;;;;;;;1.80;1.35;;;0.80;99.90;;;;;;4965286;28;20210;-71
2023/11/28 11:10:08;;;;;;;1.35;1.27;;;0.80;99.90;;;;;;4958056;28;20205;-70
2023/11/28 11:12:38;;;;;;;1.33;1.33;;;0.80;99.90;;;;;;4956576;28;20575;-70
2023/11/28 11:15:12;;;;;;;3.10;2.63;;;0.80;99.90;;;;;;4953639;28;20219;-71
2023/11/28 11:17:46;;;;;;;1.70;1.70;;;0.80;99.90;;;;;;4954456;29;20237;-71
2023/11/28 11:20:17;;;;;;;4.03;2.83;;;0.80;99.90;;;;;;4954383;28;20212;-71
2023/11/28 11:22:54;;;;;;;9.73;8.77;;;0.90;99.90;;;;;;4955347;29;20605;-71
2023/11/28 11:25:27;;;;;;;5.88;1.63;;;0.90;99.90;;;;;;4957846;29;20644;-71
2023/11/28 11:27:54;;;;;;;0.88;0.88;;;1.00;99.90;;;;;;4956003;28;20216;-71
2023/11/28 11:30:33;;;;;;;2.67;2.17;;;1.00;99.90;;;;;;4955970;28;20209;-71
2023/11/28 11:33:01;;;;;;;5.50;4.93;;;1.00;99.90;;;;;;4953939;28;20634;-71
2023/11/28 11:35:30;;;;;;;1.67;1.55;;;1.00;99.90;;;;;;4954487;28;20213;-71
2023/11/28 11:37:57;;;;;;;1.92;1.92;;;1.00;99.90;;;;;;4955026;28;20625;-71
2023/11/28 11:40:24;;;;;;;2.33;1.90;;;1.00;99.90;;;;;;4954062;28;20210;-71
2023/11/28 11:42:50;;;;;;;1.98;1.65;;;1.00;99.90;;;;;;4948817;28;20197;-71
2023/11/28 11:45:20;;;;;;;3.75;1.75;;;1.10;99.90;;;;;;4955963;28;20206;-70
2023/11/28 11:47:48;;;;;;;2.08;1.98;;;1.00;99.90;;;;;;4956094;28;20205;-72
2023/11/28 11:50:19;;;;;;;2.05;1.70;;;1.00;99.90;;;;;;4954695;28;20220;-71
2023/11/28 11:52:46;;;;;;;2.83;2.17;;;1.00;99.90;;;;;;4954547;29;20679;-72
2023/11/28 11:55:14;;;;;;;3.33;2.40;;;1.10;99.90;;;;;;4954542;28;20213;-72
2023/11/28 11:57:48;;;;;;;8.18;2.75;;;1.00;99.90;;;;;;4955389;28;20257;-71
2023/11/28 12:00:16;;;;;;;7.22;2.53;;;1.00;99.90;;;;;;4954552;28;20605;-71
2023/11/28 12:02:43;;;;;;;5.88;3.40;;;1.00;99.90;;;;;;4955165;29;20217;-71
2023/11/28 12:05:10;;;;;;;2.42;2.30;;;1.00;99.90;;;;;;4951877;28;20210;-71
2023/11/28 12:07:39;;;;;;;3.25;3.00;;;1.00;99.90;;;;;;4951783;28;20198;-70
2023/11/28 12:10:08;;;;;;;2.38;2.33;;;1.00;99.90;;;;;;4956161;28;20206;-72
2023/11/28 12:12:35;;;;;;;1.75;1.65;;;0.90;99.90;;;;;;4957086;28;20228;-72
2023/11/28 12:15:02;;;;;;;2.75;2.25;;;0.90;99.90;;;;;;4957472;28;20202;-72
2023/11/28 12:17:28;;;;;;;1.63;1.52;;;0.90;99.90;;;;;;4957411;29;20641;-72
2023/11/28 12:19:56;;;;;;;2.15;2.10;;;0.90;99.90;;;;;;4958944;28;20205;-72
2023/11/28 12:22:23;;;;;;;1.70;1.70;;;0.90;99.90;;;;;;4956845;28;20684;-70
2023/11/28 12:24:51;;;;;;;5.70;1.85;;;0.90;99.90;;;;;;4960008;28;20213;-74
2023/11/28 12:27:18;;;;;;;4.72;2.42;;;1.00;99.90;;;;;;4948852;28;20197;-72
2023/11/28 12:29:47;;;;;;;2.67;1.98;;;1.00;99.90;;;;;;4948693;28;20217;-72
2023/11/28 12:32:14;;;;;;;1.85;1.85;;;1.00;99.90;;;;;;4946195;28;20221;-73
2023/11/28 12:34:43;;;;;;;6.72;4.22;;;1.00;99.90;;;;;;4952365;28;20202;-73
2023/11/28 12:37:10;;;;;;;7.30;4.35;;;1.10;99.90;;;;;;4950326;28;20304;-72
2023/11/28 12:39:39;;;;;;;3.60;3.30;;;1.10;99.90;;;;;;4948109;28;20683;-74
2023/11/28 12:42:07;;;;;;;2.03;1.92;;;1.10;99.90;;;;;;4949844;28;20826;-72
2023/11/28 12:44:36;;;;;;;5.78;3.55;;;1.10;99.90;;;;;;4948068;28;20474;-73
2023/11/28 12:47:04;;;;;;;6.28;3.45;;;1.10;99.90;;;;;;4947474;29;20205;-73
2023/11/28 12:49:34;;;;;;;2.70;2.20;;;1.10;99.90;;;;;;4951573;28;20216;-71
2023/11/28 12:52:02;;;;;;;2.72;1.85;;;1.10;99.90;;;;;;4952359;28;20225;-73
2023/11/28 12:54:29;;;;;;;1.48;1.48;;;1.10;99.90;;;;;;4948796;28;20201;-73
2023/11/28 12:56:58;;;;;;;2.25;2.15;;;1.00;99.90;;;;;;4951338;28;20235;-73
2023/11/28 12:59:27;;;;;;;2.00;1.90;;;1.00;99.90;;;;;;4952300;28;20217;-72
2023/11/28 13:01:53;;;;;;;1.05;1.05;;;1.10;99.90;;;;;;4950741;28;20279;-73
2023/11/28 13:04:21;;;;;;;1.65;1.58;;;1.00;99.90;;;;;;4952124;28;20228;-73
2023/11/28 13:06:49;;;;;;;1.00;1.00;;;1.00;99.90;;;;;;4952997;28;20236;-73
2023/11/28 13:09:18;;;;;;;3.90;2.60;;;1.00;99.90;;;;;;4951452;28;20209;-72
2023/11/28 13:11:44;;;;;;;1.48;1.45;;;1.00;99.90;;;;;;4950145;28;20621;-73
2023/11/28 13:14:11;;;;;;;2.25;2.25;;;1.00;99.90;;;;;;4951747;28;20609;-72
2023/11/28 13:16:40;;;;;;;2.70;2.60;;;1.00;99.90;;;;;;4951524;28;20237;-72
2023/11/28 13:19:06;;;;;;;1.90;1.80;;;1.00;99.90;;;;;;4952428;28;20205;-72
2023/11/28 13:21:35;;;;;;;2.03;1.92;;;1.00;99.90;;;;;;4947677;28;20225;-73
2023/11/28 13:24:03;;;;;;;2.85;2.72;;;1.00;99.90;;;;;;4945159;29;20381;-73
2023/11/28 13:26:30;;;;;;;3.00;2.10;;;1.00;99.90;;;;;;4950407;29;20261;-72
2023/11/28 13:28:58;;;;;;;2.53;2.38;;;1.00;99.90;;;;;;4950429;28;20205;-73
2023/11/28 13:31:24;;;;;;;2.00;1.90;;;1.00;99.90;;;;;;4948774;28;20228;-70
2023/11/28 13:33:52;;;;;;;3.88;2.15;;;1.00;99.90;;;;;;4947101;28;20216;-70
2023/11/28 13:36:20;;;;;;;1.45;1.45;;;1.00;99.90;;;;;;4946152;28;20210;-71
2023/11/28 13:38:47;;;;;;;1.15;1.00;;;0.90;99.90;;;;;;4946621;28;20804;-73
2023/11/28 13:41:14;;;;;;;1.98;1.88;;;0.90;99.90;;;;;;4954371;28;20228;-73
2023/11/28 13:43:41;;;;;;;1.60;1.60;;;0.90;99.90;;;;;;4953087;28;20209;-72
2023/11/28 13:46:09;;;;;;;1.27;1.27;;;0.90;99.90;;;;;;4953928;28;20213;-73
2023/11/28 13:48:36;;;;;;;2.35;1.83;;;0.90;99.90;;;;;;4955226;28;20213;-71
2023/11/28 13:51:05;;;;;;;2.28;2.17;;;0.80;99.90;;;;;;4957092;28;20235;-71
2023/11/28 13:53:32;;;;;;;2.92;1.90;;;0.80;99.90;;;;;;4957252;28;20215;-71
2023/11/28 13:55:58;;;;;;;1.30;1.30;;;0.80;99.90;;;;;;4956181;28;20202;-71
2023/11/28 13:58:25;;;;;;;1.92;1.90;;;0.80;99.90;;;;;;4953585;28;20248;-71
2023/11/28 14:00:53;;;;;;;2.15;2.05;;;0.70;99.90;;;;;;4956787;28;20245;-71
2023/11/28 14:03:20;;;;;;;1.83;1.65;;;0.80;99.90;;;;;;4956922;28;20215;-72
2023/11/28 14:05:48;;;;;;;2.47;2.28;;;0.80;99.90;;;;;;4956116;28;20249;-71
2023/11/28 14:08:16;;;;;;;1.67;1.58;;;0.70;99.90;;;;;;4955878;28;20201;-71
2023/11/28 14:10:43;;;;;;;1.73;1.73;;;0.70;99.90;;;;;;4952350;28;20233;-71
2023/11/28 14:13:11;;;;;;;2.22;2.13;;;0.60;99.90;;;;;;4958144;28;20237;-72
2023/11/28 14:15:37;;;;;;;2.60;2.40;;;0.70;99.90;;;;;;4955330;28;20205;-72
2023/11/28 14:18:04;;;;;;;3.22;3.03;;;0.70;99.90;;;;;;4956222;28;20225;-71
2023/11/28 14:20:31;;;;;;;1.75;1.65;;;0.70;99.90;;;;;;4958495;28;20209;-72
2023/11/28 14:22:58;;;;;;;2.42;1.65;;;0.60;99.90;;;;;;4954297;28;20257;-72
2023/11/28 14:25:26;;;;;;;1.58;1.48;;;0.60;99.90;;;;;;4956984;28;20216;-71
2023/11/28 14:27:53;;;;;;;1.60;1.60;;;0.60;99.90;;;;;;4952017;28;20216;-71
2023/11/28 14:30:19;;;;;;;2.33;2.22;;;0.50;99.90;;;;;;4952570;28;20212;-71
2023/11/28 14:32:46;;;;;;;1.83;1.77;;;0.50;99.90;;;;;;4940495;28;20216;-71
2023/11/28 14:35:15;;;;;;;8.15;2.40;;;0.50;99.90;;;;;;4947321;28;20333;-71
2023/11/28 14:37:42;;;;;;;2.22;2.08;;;0.40;99.90;;;;;;4946005;28;20228;-71
2023/11/28 14:40:11;;;;;;;4.53;1.35;;;0.40;99.90;;;;;;4949984;28;20209;-71
2023/11/28 14:42:40;;;;;;;1.77;1.77;;;0.30;99.90;;;;;;4944145;28;21546;-72
2023/11/28 14:45:08;;;;;;;3.00;2.08;;;0.30;99.90;;;;;;4950528;28;20205;-71
2023/11/28 14:47:36;;;;;;;2.30;2.20;;;0.30;99.90;;;;;;4950595;28;20347;-74
2023/11/28 14:50:04;;;;;;;1.55;1.52;;;0.30;99.90;;;;;;4950377;28;20224;-73
2023/11/28 14:52:31;;;;;;;1.95;1.85;;;0.20;99.90;;;;;;4948841;28;20225;-71
2023/11/28 14:54:57;;;;;;;1.27;1.27;;;0.20;99.90;;;;;;4952345;28;20213;-72
2023/11/28 14:57:24;;;;;;;2.35;2.25;;;0.20;99.90;;;;;;4952845;29;20340;-73
2023/11/28 14:59:52;;;;;;;1.23;1.23;;;0.20;99.90;;;;;;4950747;28;20240;-73
2023/11/28 15:02:20;;;;;;;2.22;1.70;;;0.10;99.90;;;;;;4952983;28;22144;-73
2023/11/28 15:04:46;;;;;;;2.20;2.00;;;0.10;99.90;;;;;;4953162;28;20690;-72
2023/11/28 15:07:13;;;;;;;1.10;1.10;;;0.10;99.90;;;;;;4950163;28;20209;-73
2023/11/28 15:09:40;;;;;;;2.88;2.17;;;0.10;99.90;;;;;;4951826;28;20280;-72
2023/11/28 15:12:14;;;;;;;4.07;3.30;;;0.10;99.90;;;;;;4951980;29;20228;-72
2023/11/28 15:14:40;;;;;;;3.60;1.70;;;0.00;99.90;;;;;;4953238;28;20672;-73
2023/11/28 15:17:08;;;;;;;2.00;1.90;;;0.00;99.90;;;;;;4954401;29;20225;-72
2023/11/28 15:19:38;;;;;;;3.97;3.78;;;0.00;99.90;;;;;;4949400;28;20202;-72
2023/11/28 15:22:07;;;;;;;2.67;2.58;;;0.00;99.90;;;;;;4954276;28;20225;-72
2023/11/28 15:24:34;;;;;;;2.90;2.67;;;0.00;99.90;;;;;;4955047;28;20329;-73
2023/11/28 15:27:00;;;;;;;7.22;4.38;;;0.10;99.90;;;;;;4949407;28;20216;-72
2023/11/28 15:29:28;;;;;;;3.65;2.58;;;0.10;99.90;;;;;;4951481;28;20225;-73
2023/11/28 15:31:57;;;;;;;1.90;1.90;;;0.10;99.90;;;;;;4954747;28;20315;-74
2023/11/28 15:34:26;;;;;;;1.90;1.80;;;0.10;99.90;;;;;;4954996;28;20232;-73
2023/11/28 15:36:53;;;;;;;1.90;1.52;;;0.10;99.90;;;;;;4955247;28;20264;-71
2023/11/28 15:39:20;;;;;;;2.15;2.05;;;0.10;99.90;;;;;;4954064;28;20288;-72
2023/11/28 15:41:47;;;;;;;2.10;2.00;;;0.10;99.90;;;;;;4951516;28;20240;-71
2023/11/28 15:44:13;;;;;;;3.60;3.20;;;0.10;99.90;;;;;;4950686;28;20209;-72
2023/11/28 15:46:42;;;;;;;3.03;2.83;;;0.00;99.90;;;;;;4954462;28;20573;-71
2023/11/28 15:49:09;;;;;;;2.45;2.38;;;0.00;99.90;;;;;;4952595;28;20202;-72
2023/11/28 15:51:37;;;;;;;2.33;2.22;;;0.10;99.90;;;;;;4952701;28;20221;-71
2023/11/28 15:54:05;;;;;;;7.82;4.30;;;0.10;99.90;;;;;;4949635;28;20316;-72
2023/11/28 15:56:32;;;;;;;6.20;4.90;;;0.10;99.90;;;;;;4944772;28;20209;-71
2023/11/28 15:58:59;;;;;;;4.40;4.20;;;0.10;99.90;;;;;;4952223;29;20312;-71
2023/11/28 16:01:26;;;;;;;3.55;3.42;;;0.10;99.90;;;;;;4951584;28;20241;-72
2023/11/28 16:03:52;;;;;;;4.60;4.30;;;0.10;99.90;;;;;;4953026;28;20244;-71
2023/11/28 16:06:19;;;;;;;4.75;4.45;;;0.10;99.90;;;;;;4950186;28;20228;-72
2023/11/28 16:08:47;;;;;;;3.08;2.63;;;0.10;99.90;;;;;;4951042;28;20301;-71
2023/11/28 16:11:14;;;;;;;1.20;1.20;;;0.10;99.90;;;;;;4950356;28;20229;-71
2023/11/28 16:13:41;;;;;;;2.25;2.03;;;0.00;99.90;;;;;;4945676;28;20212;-72
2023/11/28 16:16:13;;;;;;;1.80;1.70;;;-0.10;99.90;;;;;;4949801;29;20209;-71
2023/11/28 16:18:39;;;;;;;1.85;1.75;;;-0.10;99.90;;;;;;4948982;28;20296;-72
2023/11/28 16:21:06;;;;;;;0.65;0.65;;;-0.20;99.90;;;;;;4952953;28;20577;-72
2023/11/28 16:23:33;;;;;;;2.08;1.85;;;-0.20;99.90;;;;;;4946076;28;20564;-72
2023/11/28 16:26:01;;;;;;;2.22;2.13;;;-0.20;99.90;;;;;;4943668;28;20684;-72
2023/11/28 16:28:28;;;;;;;1.85;1.73;;;-0.20;99.90;;;;;;4950959;28;20664;-71
2023/11/28 16:30:54;;;;;;;2.35;2.25;;;-0.20;99.90;;;;;;4954367;28;20329;-71
2023/11/28 16:33:23;;;;;;;3.28;3.08;;;-0.20;99.90;;;;;;4952341;28;20209;-71
2023/11/28 16:35:49;;;;;;;8.32;3.67;;;-0.10;99.90;;;;;;4951889;28;20529;-71
2023/11/28 16:38:18;;;;;;;7.85;4.72;;;-0.10;99.90;;;;;;4951216;28;20249;-71
2023/11/28 16:40:44;;;;;;;4.53;2.65;;;-0.10;99.90;;;;;;4949684;28;20716;-73
2023/11/28 16:43:13;;;;;;;7.47;6.20;;;0.00;99.90;;;;;;4948312;29;20300;-71
2023/11/28 16:45:40;;;;;;;3.80;3.50;;;0.00;99.90;;;;;;4949404;29;20802;-72
2023/11/28 16:48:07;;;;;;;9.90;6.45;;;0.00;99.90;;;;;;4949801;29;20215;-72
2023/11/28 16:50:34;;;;;;;4.85;3.55;;;0.00;99.90;;;;;;4953523;28;20229;-72
2023/11/28 16:53:01;;;;;;;7.38;4.35;;;0.00;99.90;;;;;;4952226;28;20216;-72
2023/11/28 16:55:28;;;;;;;7.38;4.78;;;0.00;99.90;;;;;;4948806;28;20245;-72
2023/11/28 16:57:55;;;;;;;3.53;3.25;;;0.00;99.90;;;;;;4948837;29;20232;-73
2023/11/28 17:00:24;;;;;;;3.38;3.08;;;0.00;99.90;;;;;;4950364;28;20221;-72
2023/11/28 17:02:51;;;;;;;4.82;3.58;;;0.00;99.90;;;;;;4947996;28;20296;-72
2023/11/28 17:05:20;;;;;;;2.47;2.20;;;0.00;99.90;;;;;;4949900;28;20209;-72
2023/11/28 17:07:47;;;;;;;3.08;2.60;;;0.00;99.90;;;;;;4944066;29;20205;-72
2023/11/28 17:10:15;;;;;;;1.67;1.67;;;0.00;99.90;;;;;;4947240;29;20217;-72
2023/11/28 17:12:45;;;;;;;2.53;2.30;;;0.00;99.90;;;;;;4951243;28;20268;-72
2023/11/28 17:15:12;;;;;;;4.35;4.00;;;0.00;99.90;;;;;;4951206;29;20664;-72
2023/11/28 17:17:40;;;;;;;17.58;11.07;;;0.00;99.90;;;;;;4952043;28;20245;-72
2023/11/28 17:20:07;;;;;;;7.05;5.35;;;0.10;99.90;;;;;;4950587;28;20664;-72
2023/11/28 17:22:34;;;;;;;15.15;10.02;;;0.10;99.90;;;;;;4950043;28;20228;-72
2023/11/28 17:25:02;;;;;;;9.13;7.07;;;0.10;99.90;;;;;;4949715;28;20216;-72
2023/11/28 17:27:29;;;;;;;5.43;4.65;;;0.10;99.90;;;;;;4949794;29;20477;-72
2023/11/28 17:29:56;;;;;;;2.78;2.67;;;0.10;99.90;;;;;;4952611;28;20209;-72
2023/11/28 17:32:23;;;;;;;3.05;2.90;;;0.10;99.90;;;;;;4951188;29;20739;-73
2023/11/28 17:34:53;;;;;;;2.92;2.78;;;0.00;99.90;;;;;;4949869;28;20743;-72
2023/11/28 17:37:20;;;;;;;2.63;2.50;;;-0.10;99.90;;;;;;4950992;29;20212;-72
2023/11/28 17:39:47;;;;;;;2.45;2.35;;;-0.20;99.90;;;;;;4949286;28;20229;-72
2023/11/28 17:42:14;;;;;;;3.88;3.67;;;-0.20;99.90;;;;;;4960902;28;20225;-72
2023/11/28 17:44:40;;;;;;;5.03;3.80;;;-0.20;99.90;;;;;;4964600;29;20215;-72
2023/11/28 17:47:07;;;;;;;3.95;3.63;;;-0.30;99.90;;;;;;4966070;28;20209;-72
2023/11/28 17:49:34;;;;;;;2.88;2.15;;;-0.20;99.90;;;;;;4967249;28;20233;-73
2023/11/28 17:52:03;;;;;;;1.50;1.50;;;-0.20;99.90;;;;;;4953580;28;20233;-72
2023/11/28 17:54:29;;;;;;;1.45;1.10;;;-0.20;99.90;;;;;;4951830;29;20214;-72